Time;durP1;ratioP1;P1;durP2;ratioP2;P2;SDS_P1;SDS_P2;PMS_P1;PMS_P2;Temp;Humidity;BMP_temperature;BMP_pressure;BME280_temperature;BME280_humidity;BME280_pressure;Samples;Min_cycle;Max_cycle;Signal;HPM_P1;HPM_P2
2022/04/23 00:02:18;;;;;;;17.80;13.23;;;;;;;;;;4935123;29;20427;-67
2022/04/23 00:04:44;;;;;;;20.65;13.43;;;;;;;;;;4935944;29;20031;-72
2022/04/23 00:07:10;;;;;;;19.70;13.18;;;;;;;;;;4935761;29;20035;-73
2022/04/23 00:09:35;;;;;;;20.75;13.52;;;;;;;;;;4936185;29;20036;-71
2022/04/23 00:12:01;;;;;;;16.40;12.00;;;;;;;;;;4936439;29;20046;-73
2022/04/23 00:14:27;;;;;;;17.77;12.88;;;;;;;;;;4934913;29;20032;-72
2022/04/23 00:16:54;;;;;;;19.63;13.00;;;;;;;;;;4935561;29;20394;-74
2022/04/23 00:19:21;;;;;;;19.83;14.00;;;;;;;;;;4935157;29;20095;-73
2022/04/23 00:21:46;;;;;;;22.52;13.77;;;;;;;;;;4935561;29;20028;-67
2022/04/23 00:24:12;;;;;;;20.80;14.00;;;;;;;;;;4935117;29;20131;-73
2022/04/23 00:26:40;;;;;;;20.92;13.40;;;;;;;;;;4935530;29;20019;-73
2022/04/23 00:29:06;;;;;;;20.55;13.40;;;;;;;;;;4933687;29;20134;-70
2022/04/23 00:31:31;;;;;;;18.83;12.90;;;;;;;;;;4935112;29;20163;-72
2022/04/23 00:33:57;;;;;;;15.95;12.60;;;;;;;;;;4934807;29;20040;-69
2022/04/23 00:36:23;;;;;;;17.65;13.27;;;;;;;;;;4935093;29;20020;-69
2022/04/23 00:38:52;;;;;;;17.67;12.70;;;;;;;;;;4934790;29;20035;-66
2022/04/23 00:44:05;;;;;;;19.90;12.57;;;;;;;;;;4934740;29;20463;-66
2022/04/23 00:46:30;;;;;;;16.85;12.50;;;;;;;;;;4935054;29;20024;-66
2022/04/23 00:48:58;;;;;;;14.88;10.57;;;;;;;;;;4934912;29;20040;-64
2022/04/23 00:51:29;;;;;;;17.85;11.57;;;;;;;;;;4934708;29;20116;-64
2022/04/23 00:53:56;;;;;;;16.30;10.98;;;;;;;;;;4934846;29;20035;-66
2022/04/23 00:56:25;;;;;;;18.00;12.07;;;;;;;;;;4934866;29;20028;-65
2022/04/23 00:58:51;;;;;;;20.52;13.13;;;;;;;;;;4933475;29;20040;-67
2022/04/23 01:01:22;;;;;;;21.40;14.70;;;;;;;;;;4934663;29;20386;-66
2022/04/23 01:03:48;;;;;;;19.80;13.57;;;;;;;;;;4934703;29;20046;-65
2022/04/23 01:06:15;;;;;;;20.35;12.38;;;;;;;;;;4934973;29;20019;-65
2022/04/23 01:08:41;;;;;;;22.80;13.60;;;;;;;;;;4934422;29;20043;-64
2022/04/23 01:11:07;;;;;;;20.17;12.52;;;;;;;;;;4935149;29;20031;-64
2022/04/23 01:13:33;;;;;;;20.77;13.00;;;;;;;;;;4934038;29;20506;-64
2022/04/23 01:16:02;;;;;;;19.00;13.82;;;;;;;;;;4917900;29;20036;-66
2022/04/23 01:18:28;;;;;;;17.42;13.15;;;;;;;;;;4934663;29;20402;-65
2022/04/23 01:20:59;;;;;;;22.23;12.70;;;;;;;;;;4933970;29;20075;-66
2022/04/23 01:23:25;;;;;;;21.40;13.90;;;;;;;;;;4934567;29;20042;-66
2022/04/23 01:25:54;;;;;;;20.60;13.48;;;;;;;;;;4934583;29;20062;-70
2022/04/23 01:28:22;;;;;;;18.08;11.93;;;;;;;;;;4934565;29;20043;-73
2022/04/23 01:30:52;;;;;;;15.70;12.25;;;;;;;;;;4934827;29;20036;-65
2022/04/23 01:33:19;;;;;;;20.77;12.18;;;;;;;;;;4934815;29;20115;-70
2022/04/23 01:35:45;;;;;;;17.58;12.40;;;;;;;;;;4933957;29;20425;-73
2022/04/23 01:38:12;;;;;;;17.40;12.07;;;;;;;;;;4935120;29;20035;-71
2022/04/23 01:40:38;;;;;;;17.00;12.88;;;;;;;;;;4934434;29;20071;-72
2022/04/23 01:43:04;;;;;;;21.83;12.35;;;;;;;;;;4934377;29;20036;-73
2022/04/23 01:45:30;;;;;;;17.90;11.43;;;;;;;;;;4933922;29;20471;-68
2022/04/23 01:47:56;;;;;;;16.17;11.52;;;;;;;;;;4933869;29;20051;-69
2022/04/23 01:50:22;;;;;;;19.30;13.32;;;;;;;;;;4934366;29;20086;-68
2022/04/23 01:52:48;;;;;;;25.00;13.65;;;;;;;;;;4934325;29;20047;-67
2022/04/23 01:55:14;;;;;;;17.27;11.32;;;;;;;;;;4934693;29;20043;-74
2022/04/23 01:57:40;;;;;;;14.80;11.63;;;;;;;;;;4934300;29;20414;-73
2022/04/23 02:00:08;;;;;;;16.58;12.57;;;;;;;;;;4934403;29;20024;-74
2022/04/23 02:02:38;;;;;;;17.77;12.50;;;;;;;;;;4934573;29;20465;-74
2022/04/23 02:05:04;;;;;;;17.05;11.73;;;;;;;;;;4934428;29;20163;-74
2022/04/23 02:07:30;;;;;;;17.38;12.20;;;;;;;;;;4933789;29;20509;-74
2022/04/23 02:09:56;;;;;;;18.70;12.30;;;;;;;;;;4934041;29;20036;-73
2022/04/23 02:12:22;;;;;;;22.55;13.85;;;;;;;;;;4933661;29;20035;-74
2022/04/23 02:14:48;;;;;;;21.45;13.73;;;;;;;;;;4941898;29;20434;-71
2022/04/23 02:17:14;;;;;;;24.83;15.57;;;;;;;;;;4924608;29;20055;-75
2022/04/23 02:19:40;;;;;;;23.00;14.60;;;;;;;;;;4933842;29;20024;-74
2022/04/23 02:22:06;;;;;;;23.30;14.65;;;;;;;;;;4934133;29;20494;-70
2022/04/23 02:24:32;;;;;;;22.67;14.93;;;;;;;;;;4934184;29;20031;-73
2022/04/23 02:26:57;;;;;;;21.70;13.13;;;;;;;;;;4934061;29;20032;-74
2022/04/23 02:29:23;;;;;;;20.27;13.32;;;;;;;;;;4933736;29;20035;-74
2022/04/23 02:31:49;;;;;;;21.95;13.10;;;;;;;;;;4933953;29;20086;-74
2022/04/23 02:34:16;;;;;;;24.60;13.30;;;;;;;;;;4934132;29;20028;-72
2022/04/23 02:36:43;;;;;;;18.27;12.35;;;;;;;;;;4934059;29;20555;-70
2022/04/23 02:39:09;;;;;;;20.77;12.95;;;;;;;;;;4934024;29;20111;-74
2022/04/23 02:41:35;;;;;;;18.63;11.57;;;;;;;;;;4933282;29;20115;-74
2022/04/23 02:44:01;;;;;;;26.23;12.13;;;;;;;;;;4932179;29;20028;-74
2022/04/23 02:46:27;;;;;;;18.75;11.25;;;;;;;;;;4934381;29;20054;-72
2022/04/23 02:48:55;;;;;;;18.33;12.63;;;;;;;;;;4936230;29;20023;-72
2022/04/23 02:51:21;;;;;;;25.08;13.07;;;;;;;;;;4935981;29;20055;-73
2022/04/23 02:53:47;;;;;;;24.10;13.00;;;;;;;;;;4936466;29;20356;-74
2022/04/23 02:56:16;;;;;;;22.20;12.48;;;;;;;;;;4950622;28;20499;-67
2022/04/23 02:58:43;;;;;;;25.52;13.15;;;;;;;;;;4936707;29;20110;-71
2022/04/23 03:01:10;;;;;;;18.65;12.23;;;;;;;;;;4937936;29;20032;-68
2022/04/23 03:03:40;;;;;;;23.17;13.73;;;;;;;;;;4938216;29;20387;-73
2022/04/23 03:06:07;;;;;;;21.08;12.63;;;;;;;;;;4937838;29;20047;-71
2022/04/23 03:08:35;;;;;;;22.58;13.00;;;;;;;;;;4938102;29;20423;-73
2022/04/23 03:11:01;;;;;;;21.80;13.13;;;;;;;;;;4938305;29;20119;-73
2022/04/23 03:13:27;;;;;;;21.85;12.45;;;;;;;;;;4937947;29;20142;-71
2022/04/23 03:15:53;;;;;;;24.45;12.43;;;;;;;;;;4952683;29;20039;-71
2022/04/23 03:18:19;;;;;;;16.05;11.88;;;;;;;;;;4937839;29;20558;-71
2022/04/23 03:20:45;;;;;;;16.45;11.45;;;;;;;;;;4937921;29;20040;-65
2022/04/23 03:23:12;;;;;;;18.65;11.27;;;;;;;;;;4937858;29;20111;-71
2022/04/23 03:25:38;;;;;;;21.40;12.43;;;;;;;;;;4937549;29;20036;-66
2022/04/23 03:28:05;;;;;;;17.92;12.13;;;;;;;;;;4937546;29;20546;-73
2022/04/23 03:30:31;;;;;;;18.08;12.25;;;;;;;;;;4937439;29;20039;-66
2022/04/23 03:32:58;;;;;;;18.52;12.80;;;;;;;;;;4937291;29;20028;-71
2022/04/23 03:35:24;;;;;;;20.73;12.27;;;;;;;;;;4936923;29;20155;-67
2022/04/23 03:37:49;;;;;;;18.10;12.32;;;;;;;;;;4937006;29;20118;-66
2022/04/23 03:40:15;;;;;;;16.77;12.27;;;;;;;;;;4937511;29;20044;-67
2022/04/23 03:42:45;;;;;;;17.45;11.70;;;;;;;;;;4937363;29;20024;-64
2022/04/23 03:45:11;;;;;;;18.73;11.95;;;;;;;;;;4935879;29;20040;-67
2022/04/23 03:47:37;;;;;;;20.13;12.20;;;;;;;;;;4936366;29;20038;-68
2022/04/23 03:50:07;;;;;;;21.63;12.50;;;;;;;;;;4936955;28;20480;-65
2022/04/23 03:52:33;;;;;;;21.38;12.27;;;;;;;;;;4936683;29;20511;-68
2022/04/23 03:54:59;;;;;;;16.42;10.63;;;;;;;;;;4936860;29;20043;-66
2022/04/23 03:57:25;;;;;;;16.27;11.48;;;;;;;;;;4936225;29;20142;-77
2022/04/23 03:59:51;;;;;;;18.13;11.43;;;;;;;;;;4934728;29;20479;-78
2022/04/23 04:02:17;;;;;;;15.13;10.15;;;;;;;;;;4935032;29;20070;-76
2022/04/23 04:04:43;;;;;;;19.50;13.05;;;;;;;;;;4936402;29;20107;-74
2022/04/23 04:07:09;;;;;;;20.20;11.85;;;;;;;;;;4935252;29;20027;-74
2022/04/23 04:09:35;;;;;;;14.20;11.23;;;;;;;;;;4935995;29;20402;-76
2022/04/23 04:12:01;;;;;;;23.55;11.00;;;;;;;;;;4935864;29;20087;-75
2022/04/23 04:14:37;;;;;;;16.30;11.82;;;;;;;;;;4936089;29;20475;-75
2022/04/23 04:17:12;;;;;;;17.48;11.85;;;;;;;;;;4926107;29;20044;-76
2022/04/23 04:19:38;;;;;;;25.35;14.27;;;;;;;;;;4917010;29;20037;-74
2022/04/23 04:22:06;;;;;;;18.40;13.77;;;;;;;;;;4928693;29;20032;-75
2022/04/23 04:24:33;;;;;;;23.27;14.30;;;;;;;;;;4936050;28;20476;-76
2022/04/23 04:27:00;;;;;;;26.02;13.90;;;;;;;;;;4936142;29;20039;-73
2022/04/23 04:29:26;;;;;;;25.85;14.38;;;;;;;;;;4935979;29;20043;-74
2022/04/23 04:31:52;;;;;;;23.33;15.18;;;;;;;;;;4935559;29;20024;-75
2022/04/23 04:34:30;;;;;;;27.42;16.75;;;;;;;;;;4935501;29;20480;-70
2022/04/23 04:37:12;;;;;;;28.48;16.38;;;;;;;;;;4935739;29;20078;-76
2022/04/23 04:39:40;;;;;;;21.20;15.50;;;;;;;;;;4936174;29;20039;-71
2022/04/23 04:42:07;;;;;;;28.40;15.65;;;;;;;;;;4935415;29;20023;-74
2022/04/23 04:44:34;;;;;;;24.88;16.65;;;;;;;;;;4935103;29;20048;-75
2022/04/23 04:47:09;;;;;;;23.00;15.52;;;;;;;;;;4944944;29;20035;-71
2022/04/23 04:49:39;;;;;;;23.75;15.82;;;;;;;;;;4933073;28;20083;-74
2022/04/23 04:52:05;;;;;;;20.67;14.35;;;;;;;;;;4935745;29;20040;-76
2022/04/23 04:54:31;;;;;;;22.60;12.70;;;;;;;;;;4935762;29;20491;-71
2022/04/23 04:56:57;;;;;;;22.52;14.77;;;;;;;;;;4935680;29;20038;-73
2022/04/23 04:59:23;;;;;;;17.55;12.95;;;;;;;;;;4935450;29;20031;-72
2022/04/23 05:01:50;;;;;;;20.73;13.93;;;;;;;;;;4935847;29;20214;-71
2022/04/23 05:04:16;;;;;;;21.15;13.43;;;;;;;;;;4935904;29;20032;-72
2022/04/23 05:06:42;;;;;;;20.63;13.05;;;;;;;;;;4935770;29;20039;-71
2022/04/23 05:09:09;;;;;;;26.23;12.43;;;;;;;;;;4934647;29;20438;-72
2022/04/23 05:11:35;;;;;;;24.00;12.18;;;;;;;;;;4935639;29;20043;-68
2022/04/23 05:14:01;;;;;;;22.67;12.98;;;;;;;;;;4935116;29;20059;-70
2022/04/23 05:16:26;;;;;;;21.75;12.88;;;;;;;;;;4935360;29;20043;-70
2022/04/23 05:18:52;;;;;;;18.10;12.43;;;;;;;;;;4934233;29;20028;-74
2022/04/23 05:21:18;;;;;;;21.02;13.00;;;;;;;;;;4935786;29;20032;-73
2022/04/23 05:23:44;;;;;;;16.85;12.45;;;;;;;;;;4936043;29;20028;-76
2022/04/23 05:26:10;;;;;;;20.45;12.70;;;;;;;;;;4935957;29;20032;-73
2022/04/23 05:28:36;;;;;;;21.42;12.48;;;;;;;;;;4935087;29;20486;-71
2022/04/23 05:31:03;;;;;;;18.17;12.32;;;;;;;;;;4935090;29;20047;-67
2022/04/23 05:33:28;;;;;;;19.15;12.75;;;;;;;;;;4935584;29;20053;-72
2022/04/23 05:35:54;;;;;;;26.83;13.43;;;;;;;;;;4935236;29;20501;-70
2022/04/23 05:38:21;;;;;;;25.00;13.65;;;;;;;;;;4934910;29;20023;-70
2022/04/23 05:40:48;;;;;;;19.17;13.18;;;;;;;;;;4934411;28;20384;-72
2022/04/23 05:43:15;;;;;;;19.77;13.80;;;;;;;;;;4935162;29;20431;-69
2022/04/23 05:45:41;;;;;;;21.75;14.02;;;;;;;;;;4935195;29;20123;-69
2022/04/23 05:48:07;;;;;;;24.88;14.20;;;;;;;;;;4934372;29;20164;-74
2022/04/23 05:50:33;;;;;;;23.83;13.30;;;;;;;;;;4933853;29;20114;-69
2022/04/23 05:52:59;;;;;;;21.55;13.48;;;;;;;;;;4934953;29;20123;-69
2022/04/23 05:55:25;;;;;;;22.50;13.20;;;;;;;;;;4935082;29;20042;-69
2022/04/23 05:57:51;;;;;;;17.35;11.85;;;;;;;;;;4935202;29;20083;-76
2022/04/23 06:00:17;;;;;;;17.40;11.43;;;;;;;;;;4935275;29;20040;-76
2022/04/23 06:02:43;;;;;;;14.93;10.80;;;;;;;;;;4935201;29;20079;-75
2022/04/23 06:05:10;;;;;;;19.55;10.52;;;;;;;;;;4933796;29;20079;-74
2022/04/23 06:07:37;;;;;;;21.00;11.18;;;;;;;;;;4934798;29;20114;-74
2022/04/23 06:10:03;;;;;;;19.02;13.50;;;;;;;;;;4934975;29;20107;-75
2022/04/23 06:12:29;;;;;;;18.52;11.75;;;;;;;;;;4935269;29;20475;-72
2022/04/23 06:14:55;;;;;;;14.68;10.23;;;;;;;;;;4935187;29;20044;-72
2022/04/23 06:17:25;;;;;;;17.98;10.85;;;;;;;;;;4932710;29;20488;-73
2022/04/23 06:19:52;;;;;;;18.45;9.90;;;;;;;;;;4927366;29;20114;-73
2022/04/23 06:22:19;;;;;;;15.63;10.60;;;;;;;;;;4919554;29;20111;-73
2022/04/23 06:24:46;;;;;;;14.45;10.13;;;;;;;;;;4928167;29;20075;-73
2022/04/23 06:27:11;;;;;;;18.30;10.45;;;;;;;;;;4937744;29;20095;-74
2022/04/23 06:29:41;;;;;;;17.95;9.82;;;;;;;;;;4938351;29;20074;-73
2022/04/23 06:32:08;;;;;;;18.83;11.27;;;;;;;;;;4936642;29;20123;-75
2022/04/23 06:34:35;;;;;;;16.85;10.50;;;;;;;;;;4936942;29;20094;-71
2022/04/23 06:37:01;;;;;;;19.60;10.95;;;;;;;;;;4938054;29;20028;-77
2022/04/23 06:39:27;;;;;;;15.15;10.48;;;;;;;;;;4937760;29;20481;-72
2022/04/23 06:41:53;;;;;;;15.27;10.48;;;;;;;;;;4937911;29;20028;-73
2022/04/23 06:44:20;;;;;;;15.98;9.88;;;;;;;;;;4937704;29;20063;-72
2022/04/23 06:46:45;;;;;;;17.50;10.20;;;;;;;;;;4936152;29;20059;-73
2022/04/23 06:49:11;;;;;;;17.80;9.43;;;;;;;;;;4938020;29;20390;-73
2022/04/23 06:51:37;;;;;;;16.73;10.57;;;;;;;;;;4937906;29;20055;-75
2022/04/23 06:54:04;;;;;;;14.93;10.30;;;;;;;;;;4937964;29;20074;-70
2022/04/23 06:56:31;;;;;;;15.93;10.15;;;;;;;;;;4937281;29;20036;-74
2022/04/23 06:58:57;;;;;;;13.95;9.80;;;;;;;;;;4937475;29;20042;-75
2022/04/23 07:01:23;;;;;;;14.90;11.02;;;;;;;;;;4937657;29;20110;-76
2022/04/23 07:03:49;;;;;;;15.38;11.65;;;;;;;;;;4937028;29;20484;-75
2022/04/23 07:06:16;;;;;;;24.20;11.80;;;;;;;;;;4936902;29;20079;-75
2022/04/23 07:08:44;;;;;;;15.65;11.00;;;;;;;;;;4936271;29;20036;-71
2022/04/23 07:11:10;;;;;;;19.83;11.70;;;;;;;;;;4937492;29;20031;-73
2022/04/23 07:13:37;;;;;;;17.02;11.07;;;;;;;;;;4937089;29;20042;-76
2022/04/23 07:16:04;;;;;;;20.00;10.90;;;;;;;;;;4936738;29;20054;-75
2022/04/23 07:18:31;;;;;;;15.13;9.52;;;;;;;;;;4936607;29;20040;-77
2022/04/23 07:20:57;;;;;;;14.00;9.68;;;;;;;;;;4936827;29;20082;-71
2022/04/23 07:26:08;;;;;;;13.85;8.73;;;;;;;;;;4936850;29;20047;-75
2022/04/23 07:28:35;;;;;;;16.73;8.07;;;;;;;;;;4936842;29;20031;-75
2022/04/23 07:31:01;;;;;;;17.08;9.40;;;;;;;;;;4937107;29;20043;-75
2022/04/23 07:38:55;;;;;;;21.02;8.20;;;;;;;;;;4937152;29;20466;-73
2022/04/23 07:41:21;;;;;;;14.88;7.20;;;;;;;;;;4950967;29;20106;-70
2022/04/23 07:43:47;;;;;;;17.98;7.47;;;;;;;;;;4935722;29;20036;-72
2022/04/23 07:46:13;;;;;;;15.80;7.95;;;;;;;;;;4935692;29;20119;-78
2022/04/23 07:48:39;;;;;;;17.40;7.72;;;;;;;;;;4935901;29;20059;-76
2022/04/23 07:51:05;;;;;;;15.10;7.38;;;;;;;;;;4936163;29;20087;-75
2022/04/23 07:53:31;;;;;;;14.75;6.95;;;;;;;;;;4936330;29;20036;-76
2022/04/23 07:55:57;;;;;;;17.38;8.27;;;;;;;;;;4934811;29;20031;-73
2022/04/23 07:58:23;;;;;;;23.63;7.78;;;;;;;;;;4935846;29;20040;-75
2022/04/23 08:00:49;;;;;;;16.13;9.48;;;;;;;;;;4935606;29;20035;-74
2022/04/23 08:03:15;;;;;;;20.55;10.82;;;;;;;;;;4935926;29;20479;-72
2022/04/23 08:05:42;;;;;;;21.80;11.05;;;;;;;;;;4934641;29;20098;-76
2022/04/23 08:08:08;;;;;;;21.77;10.82;;;;;;;;;;4936039;29;20126;-69
2022/04/23 08:10:34;;;;;;;20.90;10.07;;;;;;;;;;4936100;29;20038;-74
2022/04/23 08:13:00;;;;;;;24.70;8.05;;;;;;;;;;4935770;29;20039;-77
2022/04/23 08:15:29;;;;;;;16.08;6.38;;;;;;;;;;4936017;29;20135;-71
2022/04/23 08:17:55;;;;;;;19.52;9.32;;;;;;;;;;4935285;29;20042;-74
2022/04/23 08:20:21;;;;;;;18.70;9.40;;;;;;;;;;4935916;29;20351;-75
2022/04/23 08:22:47;;;;;;;23.88;9.25;;;;;;;;;;4935670;29;20051;-73
2022/04/23 08:25:13;;;;;;;16.10;8.70;;;;;;;;;;4934223;29;20020;-72
2022/04/23 08:27:49;;;;;;;14.95;8.52;;;;;;;;;;4934326;29;20050;-75
2022/04/23 08:30:34;;;;;;;18.25;8.80;;;;;;;;;;4935896;29;20486;-72
2022/04/23 08:33:02;;;;;;;21.17;9.25;;;;;;;;;;4934705;29;20063;-79
2022/04/23 08:35:32;;;;;;;16.02;7.90;;;;;;;;;;4936289;29;20427;-76
2022/04/23 08:37:59;;;;;;;24.25;7.82;;;;;;;;;;4936078;29;20066;-77
2022/04/23 08:40:26;;;;;;;21.90;7.68;;;;;;;;;;4934667;29;20476;-77
2022/04/23 08:42:52;;;;;;;18.67;7.00;;;;;;;;;;4936080;29;20043;-77
2022/04/23 08:45:18;;;;;;;25.42;6.95;;;;;;;;;;4934204;29;20463;-74
2022/04/23 08:47:45;;;;;;;24.42;6.20;;;;;;;;;;4935590;29;20110;-73
2022/04/23 08:50:11;;;;;;;15.25;5.10;;;;;;;;;;4935644;29;20468;-72
2022/04/23 08:52:41;;;;;;;22.63;6.00;;;;;;;;;;4935775;29;20449;-70
2022/04/23 08:55:08;;;;;;;15.02;5.65;;;;;;;;;;4928631;29;20483;-76
2022/04/23 08:57:36;;;;;;;18.17;5.25;;;;;;;;;;4935958;29;20106;-75
2022/04/23 09:00:08;;;;;;;19.17;4.53;;;;;;;;;;4935341;29;20036;-71
2022/04/23 09:02:35;;;;;;;21.30;5.00;;;;;;;;;;4950025;29;20047;-73
2022/04/23 09:05:02;;;;;;;19.27;4.43;;;;;;;;;;4935432;29;20039;-75
2022/04/23 09:07:29;;;;;;;19.25;5.22;;;;;;;;;;4934833;29;20032;-75
2022/04/23 09:09:57;;;;;;;19.50;4.63;;;;;;;;;;4924804;29;20035;-72
2022/04/23 09:12:25;;;;;;;17.60;4.95;;;;;;;;;;4916213;29;20039;-75
2022/04/23 09:14:52;;;;;;;21.52;4.90;;;;;;;;;;4916396;29;20033;-75
2022/04/23 09:25:40;;;;;;;29.00;4.82;;;;;;;;;;4934339;29;20128;-69
2022/04/23 09:28:23;;;;;;;18.33;3.60;;;;;;;;;;4933304;29;20024;-70
2022/04/23 09:30:50;;;;;;;21.08;4.13;;;;;;;;;;4934515;29;20499;-69
2022/04/23 09:33:17;;;;;;;33.90;4.80;;;;;;;;;;4934325;29;20036;-69
2022/04/23 09:35:56;;;;;;;25.58;5.22;;;;;;;;;;4933981;29;20036;-70
2022/04/23 09:38:23;;;;;;;21.90;4.47;;;;;;;;;;4933188;29;20110;-70
2022/04/23 09:40:59;;;;;;;23.27;4.05;;;;;;;;;;4934779;29;20028;-69
2022/04/23 09:43:28;;;;;;;21.27;4.63;;;;;;;;;;4933590;29;20116;-72
2022/04/23 09:46:01;;;;;;;30.65;4.50;;;;;;;;;;4934147;29;20379;-68
2022/04/23 09:48:26;;;;;;;21.02;4.15;;;;;;;;;;4949079;28;20044;-68
2022/04/23 09:50:52;;;;;;;24.95;5.00;;;;;;;;;;4933534;29;20051;-70
2022/04/23 09:53:20;;;;;;;21.98;4.75;;;;;;;;;;4934032;29;20038;-71
2022/04/23 09:55:47;;;;;;;22.02;4.28;;;;;;;;;;4934875;29;20475;-73
2022/04/23 09:58:14;;;;;;;21.25;4.68;;;;;;;;;;4937185;29;20554;-72
2022/04/23 10:00:42;;;;;;;22.60;4.25;;;;;;;;;;4937983;29;20028;-74
2022/04/23 10:03:09;;;;;;;22.63;4.60;;;;;;;;;;4937702;29;20044;-72
2022/04/23 10:05:42;;;;;;;30.70;4.85;;;;;;;;;;4937317;29;20489;-76
2022/04/23 10:08:11;;;;;;;21.10;3.72;;;;;;;;;;4937938;29;20452;-75
2022/04/23 10:11:00;;;;;;;20.73;4.75;;;;;;;;;;4937954;29;20083;-77
2022/04/23 10:13:29;;;;;;;20.85;4.00;;;;;;;;;;4936640;29;20079;-72
2022/04/23 10:15:57;;;;;;;15.73;3.63;;;;;;;;;;4937587;29;20065;-76
2022/04/23 10:18:23;;;;;;;19.25;4.65;;;;;;;;;;4952263;28;20043;-76
2022/04/23 10:20:59;;;;;;;18.58;3.78;;;;;;;;;;4933617;29;20383;-75
2022/04/23 10:23:46;;;;;;;22.45;4.15;;;;;;;;;;4929484;29;20122;-75
2022/04/23 10:26:37;;;;;;;19.30;4.35;;;;;;;;;;4918619;29;20040;-75
2022/04/23 10:29:13;;;;;;;25.85;3.78;;;;;;;;;;4917978;29;20044;-78
2022/04/23 10:31:41;;;;;;;21.65;3.42;;;;;;;;;;4918818;29;20112;-74
2022/04/23 10:34:31;;;;;;;19.27;4.43;;;;;;;;;;4918573;29;20039;-77
2022/04/23 10:37:19;;;;;;;22.13;3.67;;;;;;;;;;4918789;29;20032;-74
2022/04/23 10:39:51;;;;;;;19.92;3.78;;;;;;;;;;4936194;29;20110;-78
2022/04/23 10:42:22;;;;;;;23.55;4.03;;;;;;;;;;4937028;29;20032;-77
2022/04/23 10:44:50;;;;;;;20.65;3.33;;;;;;;;;;4937486;29;20062;-76
2022/04/23 10:47:36;;;;;;;21.17;3.65;;;;;;;;;;4937239;29;20027;-75
2022/04/23 10:50:15;;;;;;;17.33;3.45;;;;;;;;;;4936665;29;20042;-77
2022/04/23 10:52:42;;;;;;;19.75;3.72;;;;;;;;;;4936662;29;20043;-75
2022/04/23 10:55:09;;;;;;;15.50;3.30;;;;;;;;;;4937089;29;20102;-76
2022/04/23 10:57:35;;;;;;;24.10;4.25;;;;;;;;;;4937011;29;20091;-77
2022/04/23 11:00:21;;;;;;;16.83;3.33;;;;;;;;;;4936677;29;20439;-74
2022/04/23 11:02:57;;;;;;;18.20;3.00;;;;;;;;;;4936515;29;20448;-71
2022/04/23 11:13:54;;;;;;;22.45;3.60;;;;;;;;;;4932277;29;20076;-78
2022/04/23 11:16:22;;;;;;;21.95;3.75;;;;;;;;;;4935642;29;20106;-73
2022/04/23 11:18:50;;;;;;;15.35;2.88;;;;;;;;;;4937041;29;20039;-75
2022/04/23 11:21:24;;;;;;;19.08;3.10;;;;;;;;;;4935502;29;20111;-78
2022/04/23 11:23:51;;;;;;;17.17;3.35;;;;;;;;;;4936095;29;20074;-77
2022/04/23 11:26:21;;;;;;;21.08;3.38;;;;;;;;;;4935156;29;20039;-79
2022/04/23 11:28:59;;;;;;;20.40;3.80;;;;;;;;;;4935986;29;20043;-77
2022/04/23 11:31:26;;;;;;;20.45;3.17;;;;;;;;;;4935083;29;20055;-76
2022/04/23 11:33:57;;;;;;;16.58;2.70;;;;;;;;;;4936984;29;20031;-76
2022/04/23 11:36:36;;;;;;;18.35;3.72;;;;;;;;;;4935234;29;20094;-77
2022/04/23 11:39:10;;;;;;;19.40;3.53;;;;;;;;;;4934663;29;20048;-73
2022/04/23 11:41:44;;;;;;;18.17;3.83;;;;;;;;;;4927272;29;20456;-77
2022/04/23 11:44:14;;;;;;;15.63;2.80;;;;;;;;;;4936526;29;20046;-76
2022/04/23 11:46:48;;;;;;;15.38;3.47;;;;;;;;;;4936560;29;20039;-78
2022/04/23 11:49:32;;;;;;;18.02;3.53;;;;;;;;;;4936616;29;20040;-77
2022/04/23 11:52:19;;;;;;;19.42;3.63;;;;;;;;;;4936159;29;20047;-74
2022/04/23 11:54:45;;;;;;;20.35;3.67;;;;;;;;;;4936009;29;20063;-74
2022/04/23 11:57:15;;;;;;;16.33;3.50;;;;;;;;;;4936374;29;20035;-77
2022/04/23 11:59:43;;;;;;;19.65;2.90;;;;;;;;;;4936363;29;20043;-70
2022/04/23 12:02:28;;;;;;;17.73;3.55;;;;;;;;;;4936620;29;20028;-76
2022/04/23 12:04:59;;;;;;;21.35;3.85;;;;;;;;;;4936854;29;20036;-73
2022/04/23 12:07:26;;;;;;;22.30;3.25;;;;;;;;;;4936168;29;20067;-77
2022/04/23 12:09:57;;;;;;;18.88;3.72;;;;;;;;;;4936408;29;20032;-76
2022/04/23 12:12:26;;;;;;;15.80;3.55;;;;;;;;;;4936264;29;20562;-78
2022/04/23 12:14:52;;;;;;;14.93;3.35;;;;;;;;;;4936274;29;20079;-77
2022/04/23 12:17:31;;;;;;;18.50;3.25;;;;;;;;;;4936329;29;20036;-77
2022/04/23 12:19:59;;;;;;;17.23;2.70;;;;;;;;;;4935630;29;20042;-81
2022/04/23 12:22:30;;;;;;;14.93;3.03;;;;;;;;;;4936522;29;20106;-79
2022/04/23 12:25:10;;;;;;;17.70;3.40;;;;;;;;;;4936153;29;20043;-77
2022/04/23 12:27:55;;;;;;;13.75;3.58;;;;;;;;;;4936196;29;20042;-80
2022/04/23 12:41:57;;;;;;;16.58;3.67;;;;;;;;;;4935741;29;20154;-76
2022/04/23 12:44:32;;;;;;;18.38;3.70;;;;;;;;;;4936370;29;20038;-78
2022/04/23 12:47:01;;;;;;;10.88;2.55;;;;;;;;;;4936340;29;20032;-80
2022/04/23 12:49:57;;;;;;;17.52;3.30;;;;;;;;;;4935436;29;20036;-76
2022/04/23 12:52:33;;;;;;;14.63;3.35;;;;;;;;;;4935467;29;20047;-75
2022/04/23 12:55:15;;;;;;;17.33;3.65;;;;;;;;;;4935793;29;20119;-77
2022/04/23 12:57:47;;;;;;;16.33;3.10;;;;;;;;;;4935741;29;20039;-74
2022/04/23 13:00:16;;;;;;;14.05;3.03;;;;;;;;;;4935628;29;20038;-68
2022/04/23 13:02:45;;;;;;;17.98;3.50;;;;;;;;;;4935500;29;20079;-77
2022/04/23 13:05:12;;;;;;;17.42;3.28;;;;;;;;;;4935520;29;20463;-73
2022/04/23 13:10:22;;;;;;;13.15;3.15;;;;;;;;;;4935743;29;20400;-73
2022/04/23 13:12:48;;;;;;;24.75;3.38;;;;;;;;;;4935262;29;20071;-78
2022/04/23 13:15:17;;;;;;;19.42;2.97;;;;;;;;;;4935060;29;20046;-79
2022/04/23 13:17:46;;;;;;;15.35;3.13;;;;;;;;;;4932402;29;20565;-77
2022/04/23 13:20:13;;;;;;;18.10;3.05;;;;;;;;;;4930914;29;20039;-78
2022/04/23 13:22:46;;;;;;;14.25;2.95;;;;;;;;;;4934489;29;20467;-68
2022/04/23 13:25:13;;;;;;;;;;;;;;;;;;4934947;29;20036;-77
2022/04/23 13:27:40;;;;;;;12.35;2.75;;;;;;;;;;4934104;29;19997;-70
2022/04/23 13:30:07;;;;;;;18.02;3.10;;;;;;;;;;4934357;29;20059;-69
2022/04/23 13:32:39;;;;;;;17.05;3.17;;;;;;;;;;4933929;29;20523;-77
2022/04/23 13:35:06;;;;;;;;;;;;;;;;;;4934976;29;20099;-70
2022/04/23 13:37:33;;;;;;;21.35;2.90;;;;;;;;;;4933206;29;19910;-75
2022/04/23 13:39:58;;;;;;;12.50;2.65;;;;;;;;;;4932889;29;20495;-76
2022/04/23 13:42:25;;;;;;;20.13;3.03;;;;;;;;;;4930547;29;20028;-73
2022/04/23 13:44:53;;;;;;;20.80;2.92;;;;;;;;;;4927813;29;20055;-75
2022/04/23 13:47:20;;;;;;;17.88;2.80;;;;;;;;;;4931434;29;20032;-72
2022/04/23 13:49:47;;;;;;;16.23;2.50;;;;;;;;;;4931641;29;20043;-77
2022/04/23 13:52:13;;;;;;;13.52;2.58;;;;;;;;;;4931820;29;20088;-74
2022/04/23 13:54:39;;;;;;;12.77;2.15;;;;;;;;;;4932235;29;20031;-77
2022/04/23 13:57:06;;;;;;;16.25;3.00;;;;;;;;;;4933728;29;20035;-75
2022/04/23 13:59:35;;;;;;;20.35;3.08;;;;;;;;;;4931351;29;20379;-68
2022/04/23 14:10:16;;;;;;;11.82;2.50;;;;;;;;;;4933587;29;20475;-77
2022/04/23 14:12:44;;;;;;;15.38;2.70;;;;;;;;;;4933347;29;20020;-70
2022/04/23 14:15:11;;;;;;;15.95;2.80;;;;;;;;;;4933132;29;20546;-80
2022/04/23 14:17:38;;;;;;;9.70;3.33;;;;;;;;;;4932106;29;20436;-72
2022/04/23 14:20:05;;;;;;;15.63;3.45;;;;;;;;;;4932997;29;20047;-74
2022/04/23 14:22:31;;;;;;;17.00;2.83;;;;;;;;;;4933789;29;20043;-69
2022/04/23 14:25:00;;;;;;;20.05;3.15;;;;;;;;;;4933279;29;20046;-72
2022/04/23 14:27:26;;;;;;;12.48;3.33;;;;;;;;;;4930976;29;20067;-76
2022/04/23 14:29:52;;;;;;;15.38;2.67;;;;;;;;;;4933327;29;20027;-68
2022/04/23 14:32:18;;;;;;;10.60;2.13;;;;;;;;;;4933268;29;20466;-67
2022/04/23 14:34:44;;;;;;;11.15;2.75;;;;;;;;;;4933078;29;20063;-65
2022/04/23 14:37:10;;;;;;;18.27;3.15;;;;;;;;;;4933062;29;20024;-71
2022/04/23 14:39:36;;;;;;;9.32;2.60;;;;;;;;;;4932736;29;20061;-68
2022/04/23 14:42:02;;;;;;;19.25;2.60;;;;;;;;;;4934521;28;20098;-69
2022/04/23 14:44:28;;;;;;;12.57;2.47;;;;;;;;;;4936669;29;20248;-67
2022/04/23 14:46:54;;;;;;;12.48;2.58;;;;;;;;;;4936498;29;20028;-67
2022/04/23 14:49:20;;;;;;;13.23;2.50;;;;;;;;;;4936457;29;20078;-67
2022/04/23 14:54:32;;;;;;;11.20;2.60;;;;;;;;;;4937987;29;20079;-67
2022/04/23 14:56:58;;;;;;;18.48;3.20;;;;;;;;;;4938180;29;20079;-68
2022/04/23 14:59:26;;;;;;;22.27;4.70;;;;;;;;;;4936146;29;20051;-67
2022/04/23 15:01:51;;;;;;;21.85;3.15;;;;;;;;;;4937922;29;20035;-66
2022/04/23 15:04:17;;;;;;;17.45;2.65;;;;;;;;;;4933572;29;20469;-67
2022/04/23 15:06:44;;;;;;;12.18;2.72;;;;;;;;;;4950931;28;20091;-70
2022/04/23 15:09:09;;;;;;;16.27;2.70;;;;;;;;;;4937170;29;20043;-68
2022/04/23 15:11:35;;;;;;;10.00;2.45;;;;;;;;;;4936705;29;20026;-67
2022/04/23 15:14:01;;;;;;;14.30;2.80;;;;;;;;;;4937017;29;20500;-67
2022/04/23 15:16:27;;;;;;;13.90;2.80;;;;;;;;;;4936892;29;20166;-69
2022/04/23 15:18:53;;;;;;;22.02;3.40;;;;;;;;;;4935961;29;20044;-69
2022/04/23 15:21:19;;;;;;;18.63;3.42;;;;;;;;;;4936530;29;20032;-70
2022/04/23 15:23:45;;;;;;;20.33;4.90;;;;;;;;;;4936626;29;20032;-72